Time;durP1;ratioP1;P1;durP2;ratioP2;P2;SDS_P1;SDS_P2;PMS_P1;PMS_P2;Temp;Humidity;BMP_temperature;BMP_pressure;BME280_temperature;BME280_humidity;BME280_pressure;Samples;Min_cycle;Max_cycle;Signal;HPM_P1;HPM_P2
2022/12/14 00:00:43;;;;;;;;;;;16.40;83.70;;;;;;5096583;28;19951;-45
2022/12/14 00:03:08;;;;;;;;;;;16.50;83.60;;;;;;5096267;28;19949;-44
2022/12/14 00:05:34;;;;;;;;;;;16.70;83.50;;;;;;5095953;28;19912;-48
2022/12/14 00:08:00;;;;;;;;;;;16.80;83.20;;;;;;5096393;28;19908;-45
2022/12/14 00:10:26;;;;;;;;;;;16.90;83.10;;;;;;5096158;28;19915;-45
2022/12/14 00:12:52;;;;;;;;;;;16.90;82.90;;;;;;5095262;28;20277;-46
2022/12/14 00:15:17;;;;;;;;;;;17.00;82.80;;;;;;5095652;28;19934;-44
2022/12/14 00:17:43;;;;;;;;;;;17.00;82.80;;;;;;5095956;28;19912;-44
2022/12/14 00:20:08;;;;;;;;;;;17.00;82.70;;;;;;5095976;28;20262;-46
2022/12/14 00:22:34;;;;;;;;;;;17.00;82.70;;;;;;5095803;28;19916;-48
2022/12/14 00:24:59;;;;;;;;;;;16.90;82.60;;;;;;5095829;28;20347;-46
2022/12/14 00:27:25;;;;;;;;;;;16.90;82.70;;;;;;5095788;28;19961;-45
2022/12/14 00:29:51;;;;;;;;;;;16.90;82.70;;;;;;5095811;28;19951;-45
2022/12/14 00:32:16;;;;;;;;;;;16.80;82.70;;;;;;5095703;28;19908;-47
2022/12/14 00:34:41;;;;;;;;;;;16.80;82.70;;;;;;5095209;28;19920;-46
2022/12/14 00:37:07;;;;;;;;;;;16.80;82.80;;;;;;5095324;28;19943;-49
2022/12/14 00:39:33;;;;;;;;;;;16.70;82.80;;;;;;5095292;28;19908;-47
2022/12/14 00:41:58;;;;;;;;;;;16.70;82.90;;;;;;5095253;28;19912;-45
2022/12/14 00:44:24;;;;;;;;;;;16.70;83.00;;;;;;5095207;28;19916;-50
2022/12/14 00:46:49;;;;;;;;;;;16.60;83.00;;;;;;5095195;28;19914;-45
2022/12/14 00:49:14;;;;;;;;;;;16.60;83.10;;;;;;5095330;28;19915;-45
2022/12/14 00:51:40;;;;;;;;;;;16.60;83.20;;;;;;5095389;28;19915;-48
2022/12/14 00:54:05;;;;;;;;;;;16.60;83.20;;;;;;5095211;28;19908;-45
2022/12/14 00:56:32;;;;;;;;;;;16.50;83.30;;;;;;5094906;28;20386;-47
2022/12/14 00:58:57;;;;;;;;;;;16.50;83.40;;;;;;5095191;28;19908;-47
2022/12/14 01:01:23;;;;;;;;;;;16.50;83.50;;;;;;5095104;28;19965;-46
2022/12/14 01:03:48;;;;;;;;;;;16.40;83.60;;;;;;5095255;28;20363;-50
2022/12/14 01:06:15;;;;;;;;;;;16.40;83.70;;;;;;5095007;28;19912;-45
2022/12/14 01:08:40;;;;;;;;;;;16.40;83.90;;;;;;5094972;28;20359;-46
2022/12/14 01:11:06;;;;;;;;;;;16.40;83.90;;;;;;5094918;28;20053;-49
2022/12/14 01:13:32;;;;;;;;;;;16.40;84.00;;;;;;5094634;28;20355;-46
2022/12/14 01:16:11;;;;;;;;;;;16.50;84.30;;;;;;5094847;28;19908;-48
2022/12/14 01:18:38;;;;;;;;;;;16.50;84.30;;;;;;5094549;28;19909;-45
2022/12/14 01:21:08;;;;;;;;;;;16.50;84.40;;;;;;5094408;28;19918;-47
2022/12/14 01:23:34;;;;;;;;;;;16.50;84.30;;;;;;5094697;28;20381;-46
2022/12/14 01:25:59;;;;;;;;;;;16.60;84.80;;;;;;5093967;28;19908;-46
2022/12/14 01:28:25;;;;;;;;;;;16.70;84.10;;;;;;5094638;28;20351;-45
2022/12/14 01:30:50;;;;;;;;;;;16.70;83.90;;;;;;5094274;28;20003;-44
2022/12/14 01:33:16;;;;;;;;;;;16.70;83.90;;;;;;5094199;28;19915;-49
2022/12/14 01:35:41;;;;;;;;;;;16.80;83.80;;;;;;5094663;28;19974;-45
2022/12/14 01:38:07;;;;;;;;;;;16.70;83.80;;;;;;5094274;28;19908;-45
2022/12/14 01:40:32;;;;;;;;;;;16.70;83.80;;;;;;5094503;28;19912;-46
2022/12/14 01:42:58;;;;;;;;;;;16.70;83.70;;;;;;5094536;28;20397;-49
2022/12/14 01:45:23;;;;;;;;;;;16.70;83.70;;;;;;5094518;28;19910;-47
2022/12/14 01:47:50;;;;;;;;;;;16.70;83.70;;;;;;5094696;28;19909;-46
2022/12/14 01:50:22;;;;;;;;;;;16.60;83.70;;;;;;5094328;28;19915;-45
2022/12/14 01:52:49;;;;;;;;;;;16.60;83.60;;;;;;5094405;28;19908;-46
2022/12/14 01:55:34;;;;;;;;;;;16.60;83.60;;;;;;5094219;28;19916;-49
2022/12/14 01:58:03;;;;;;;;;;;16.60;83.70;;;;;;5093546;28;19912;-47
2022/12/14 02:00:28;;;;;;;;;;;16.60;83.70;;;;;;5094275;28;19908;-48
2022/12/14 02:03:11;;;;;;;;;;;16.50;83.60;;;;;;5093964;28;19916;-45
2022/12/14 02:05:40;;;;;;;;;;;16.50;83.60;;;;;;5094013;28;19985;-45
2022/12/14 02:08:06;;;;;;;;;;;16.50;83.60;;;;;;5094225;28;19908;-47
2022/12/14 02:10:31;;;;;;;;;;;16.50;83.70;;;;;;5093966;28;19978;-46
2022/12/14 02:13:05;;;;;;;;;;;16.50;83.70;;;;;;5094167;28;19969;-45
2022/12/14 02:15:31;;;;;;;;;;;16.50;83.80;;;;;;5094091;28;19930;-45
2022/12/14 02:17:56;;;;;;;;;;;16.40;83.80;;;;;;5094418;28;19908;-50
2022/12/14 02:20:24;;;;;;;;;;;16.40;83.90;;;;;;5094146;28;19961;-46
2022/12/14 02:23:02;;;;;;;;;;;16.40;84.20;;;;;;5093694;28;20003;-46
2022/12/14 02:25:53;;;;;;;;;;;16.40;84.20;;;;;;5094183;28;20354;-48
2022/12/14 02:28:25;;;;;;;;;;;16.40;84.40;;;;;;5093883;28;20294;-44
2022/12/14 02:30:55;;;;;;;;;;;16.40;84.50;;;;;;5094076;28;19943;-48
2022/12/14 02:33:39;;;;;;;;;;;16.50;84.50;;;;;;5094295;28;19908;-46
2022/12/14 02:36:05;;;;;;;;;;;16.60;84.40;;;;;;5094702;28;19947;-45
2022/12/14 02:38:48;;;;;;;;;;;16.60;84.10;;;;;;5097721;28;19908;-47
2022/12/14 02:41:28;;;;;;;;;;;16.70;84.00;;;;;;5097796;28;19912;-50
2022/12/14 02:44:03;;;;;;;;;;;16.80;83.80;;;;;;5097879;28;19919;-50
2022/12/14 02:46:37;;;;;;;;;;;16.80;83.70;;;;;;5097749;28;19997;-45
2022/12/14 02:49:03;;;;;;;;;;;16.80;83.70;;;;;;5097700;28;20312;-46
2022/12/14 02:51:28;;;;;;;;;;;16.70;83.60;;;;;;5097426;28;19909;-46
2022/12/14 02:53:59;;;;;;;;;;;16.70;83.60;;;;;;5097673;28;20314;-48
2022/12/14 02:56:28;;;;;;;;;;;16.70;83.60;;;;;;5097756;28;19912;-48
2022/12/14 02:58:53;;;;;;;;;;;16.70;83.50;;;;;;5079462;28;19956;-48
2022/12/14 03:01:20;;;;;;;;;;;16.70;83.50;;;;;;5079227;28;19916;-49
2022/12/14 03:03:46;;;;;;;;;;;16.60;83.50;;;;;;5097116;28;20355;-48
2022/12/14 03:06:24;;;;;;;;;;;16.60;83.60;;;;;;5097147;28;20042;-49
2022/12/14 03:08:50;;;;;;;;;;;16.60;83.60;;;;;;5097164;28;19919;-48
2022/12/14 03:11:20;;;;;;;;;;;16.60;83.60;;;;;;5097008;28;19908;-47
2022/12/14 03:13:48;;;;;;;;;;;16.60;83.60;;;;;;5097271;28;19915;-46
2022/12/14 03:16:18;;;;;;;;;;;16.60;83.60;;;;;;5096985;28;19908;-48
2022/12/14 03:18:52;;;;;;;;;;;16.50;83.60;;;;;;5097169;28;19908;-46
2022/12/14 03:21:20;;;;;;;;;;;16.50;83.70;;;;;;5096708;28;19912;-47
2022/12/14 03:23:47;;;;;;;;;;;16.50;83.70;;;;;;5097067;28;19916;-49
2022/12/14 03:26:30;;;;;;;;;;;16.50;84.30;;;;;;5096760;28;19915;-47
2022/12/14 03:29:05;;;;;;;;;;;16.40;83.80;;;;;;5097118;28;20004;-47
2022/12/14 03:31:33;;;;;;;;;;;16.40;84.00;;;;;;5096975;28;19958;-47
2022/12/14 03:34:01;;;;;;;;;;;16.30;84.60;;;;;;5096565;28;20382;-50
2022/12/14 03:36:39;;;;;;;;;;;16.30;84.20;;;;;;5096726;28;19915;-46
2022/12/14 03:39:06;;;;;;;;;;;16.30;84.80;;;;;;5096777;28;19912;-49
2022/12/14 03:41:34;;;;;;;;;;;16.40;84.40;;;;;;5096450;28;19912;-47
2022/12/14 03:44:06;;;;;;;;;;;16.40;84.50;;;;;;5096787;28;19912;-47
2022/12/14 03:46:34;;;;;;;;;;;16.40;84.50;;;;;;5096677;28;19912;-45
2022/12/14 03:49:08;;;;;;;;;;;16.40;84.50;;;;;;5095591;28;19912;-46
2022/12/14 03:51:37;;;;;;;;;;;16.50;84.50;;;;;;5096348;28;20003;-47
2022/12/14 03:54:11;;;;;;;;;;;16.50;84.40;;;;;;5096244;28;19955;-48
2022/12/14 03:56:48;;;;;;;;;;;16.60;84.30;;;;;;5094815;28;20337;-46
2022/12/14 03:59:13;;;;;;;;;;;16.60;84.20;;;;;;5096210;28;20259;-45
2022/12/14 04:01:39;;;;;;;;;;;16.50;84.10;;;;;;5102541;28;19941;-46
2022/12/14 04:04:07;;;;;;;;;;;16.50;84.00;;;;;;5099165;28;20808;-45
2022/12/14 04:06:33;;;;;;;;;;;16.50;84.00;;;;;;5094839;28;19946;-46
2022/12/14 04:08:58;;;;;;;;;;;16.50;84.10;;;;;;5094654;28;19939;-45
2022/12/14 04:19:58;;;;;;;;;;;16.50;84.10;;;;;;5094466;28;20266;-47
2022/12/14 04:22:26;;;;;;;;;;;16.50;84.10;;;;;;5094534;28;19999;-45
2022/12/14 04:27:45;;;;;;;;;;;16.40;84.00;;;;;;5094538;28;19973;-47
2022/12/14 04:30:12;;;;;;;;;;;16.40;84.10;;;;;;5095433;28;19953;-45
2022/12/14 04:32:50;;;;;;;;;;;16.40;84.20;;;;;;5094218;28;19911;-45
2022/12/14 04:35:25;;;;;;;;;;;16.40;84.20;;;;;;5076084;28;19922;-45
2022/12/14 04:37:54;;;;;;;;;;;16.40;84.30;;;;;;5098481;28;19999;-46
2022/12/14 04:40:25;;;;;;;;;;;16.30;84.30;;;;;;5093831;28;19908;-46
2022/12/14 04:42:53;;;;;;;;;;;16.30;84.50;;;;;;5095081;28;19956;-45
2022/12/14 04:45:22;;;;;;;;;;;16.30;84.50;;;;;;5093871;28;20003;-45
2022/12/14 04:47:53;;;;;;;;;;;16.50;84.50;;;;;;5094031;28;20006;-44
2022/12/14 04:50:25;;;;;;;;;;;16.50;84.50;;;;;;5093868;28;19961;-44
2022/12/14 04:52:54;;;;;;;;;;;16.60;84.30;;;;;;5093995;28;19926;-45
2022/12/14 04:55:19;;;;;;;;;;;16.60;84.20;;;;;;5096548;28;19904;-45
2022/12/14 04:57:53;;;;;;;;;;;16.60;84.10;;;;;;5093850;28;20326;-48
2022/12/14 05:00:19;;;;;;;;;;;16.70;84.10;;;;;;5093708;28;19911;-49
2022/12/14 05:02:47;;;;;;;;;;;16.70;84.10;;;;;;5089368;28;19912;-45
2022/12/14 05:05:17;;;;;;;;;;;16.70;84.00;;;;;;5090368;28;19923;-47
2022/12/14 05:07:52;;;;;;;;;;;16.70;84.00;;;;;;5093760;28;19908;-47
2022/12/14 05:10:27;;;;;;;;;;;16.70;83.90;;;;;;5093463;28;19908;-44
2022/12/14 05:13:00;;;;;;;;;;;16.70;83.90;;;;;;5093873;28;19977;-48
2022/12/14 05:15:30;;;;;;;;;;;16.60;83.90;;;;;;5092853;28;20363;-47
2022/12/14 05:18:00;;;;;;;;;;;16.60;83.90;;;;;;5093079;28;19908;-49
2022/12/14 05:20:25;;;;;;;;;;;16.60;84.00;;;;;;5092697;28;20419;-47
2022/12/14 05:22:51;;;;;;;;;;;16.60;84.10;;;;;;5092520;28;19935;-46
2022/12/14 05:25:16;;;;;;;;;;;16.60;84.10;;;;;;5092199;28;20057;-45
2022/12/14 05:27:42;;;;;;;;;;;16.50;84.00;;;;;;5093329;28;19948;-47
2022/12/14 05:30:07;;;;;;;;;;;16.50;84.00;;;;;;5094313;28;20266;-47
2022/12/14 05:32:33;;;;;;;;;;;16.50;84.00;;;;;;5094195;28;19915;-49
2022/12/14 05:34:58;;;;;;;;;;;16.50;84.00;;;;;;5094422;28;19920;-47
2022/12/14 05:37:24;;;;;;;;;;;16.50;84.00;;;;;;5094411;28;19912;-47
2022/12/14 05:39:49;;;;;;;;;;;16.40;84.00;;;;;;5094448;28;20252;-46
2022/12/14 05:42:15;;;;;;;;;;;16.40;84.10;;;;;;5094332;28;19957;-51
2022/12/14 05:44:40;;;;;;;;;;;16.30;84.10;;;;;;5094281;28;20003;-49
2022/12/14 05:47:06;;;;;;;;;;;16.30;84.30;;;;;;5094254;28;20337;-48
2022/12/14 05:49:31;;;;;;;;;;;16.20;84.40;;;;;;5094350;28;19912;-47
2022/12/14 05:51:57;;;;;;;;;;;16.20;84.50;;;;;;5094265;28;19914;-45
2022/12/14 05:54:22;;;;;;;;;;;16.20;84.60;;;;;;5093916;28;20251;-45
2022/12/14 05:56:48;;;;;;;;;;;16.20;84.60;;;;;;5094142;28;19908;-46
2022/12/14 05:59:14;;;;;;;;;;;16.20;84.70;;;;;;5094104;28;19908;-44
2022/12/14 06:01:41;;;;;;;;;;;16.20;84.70;;;;;;5094157;28;19912;-46
2022/12/14 06:04:06;;;;;;;;;;;16.20;84.70;;;;;;5094137;28;19943;-45
2022/12/14 06:06:32;;;;;;;;;;;16.20;84.70;;;;;;5094378;28;19958;-45
2022/12/14 06:08:57;;;;;;;;;;;16.20;84.80;;;;;;5093957;28;19909;-45
2022/12/14 06:11:23;;;;;;;;;;;16.20;84.70;;;;;;5095323;28;20313;-45
2022/12/14 06:13:49;;;;;;;;;;;16.20;84.60;;;;;;5097867;28;19916;-48
2022/12/14 06:16:16;;;;;;;;;;;16.30;84.50;;;;;;5098060;28;19919;-46
2022/12/14 06:18:44;;;;;;;;;;;16.40;84.40;;;;;;5097682;28;19908;-47
2022/12/14 06:21:11;;;;;;;;;;;16.40;84.20;;;;;;5097899;28;19973;-46
2022/12/14 06:23:36;;;;;;;;;;;16.50;84.20;;;;;;5097626;28;19961;-48
2022/12/14 06:26:02;;;;;;;;;;;16.50;84.10;;;;;;5079683;28;19915;-48
2022/12/14 06:28:28;;;;;;;;;;;16.50;84.10;;;;;;5097856;28;19930;-47
2022/12/14 06:30:53;;;;;;;;;;;16.50;84.00;;;;;;5097669;28;19908;-48
2022/12/14 06:33:18;;;;;;;;;;;16.60;84.00;;;;;;5097730;28;19919;-46
2022/12/14 06:35:45;;;;;;;;;;;16.50;84.10;;;;;;5097161;28;20374;-47
2022/12/14 06:38:11;;;;;;;;;;;16.50;84.00;;;;;;5097357;28;20350;-47
2022/12/14 06:40:36;;;;;;;;;;;16.50;84.00;;;;;;5097070;28;19908;-47
2022/12/14 06:43:02;;;;;;;;;;;16.50;84.00;;;;;;5097355;28;19961;-49
2022/12/14 06:45:27;;;;;;;;;;;16.50;84.00;;;;;;5095484;28;20053;-51
2022/12/14 06:47:53;;;;;;;;;;;16.50;84.20;;;;;;5098598;28;19920;-50
2022/12/14 06:50:18;;;;;;;;;;;16.50;84.10;;;;;;5096784;28;19954;-48
2022/12/14 06:52:47;;;;;;;;;;;16.50;84.10;;;;;;5097180;28;20309;-49
2022/12/14 06:55:13;;;;;;;;;;;16.40;84.10;;;;;;5078860;28;20263;-50
2022/12/14 06:57:38;;;;;;;;;;;16.40;84.10;;;;;;5097418;28;19918;-49
2022/12/14 07:00:04;;;;;;;;;;;16.40;84.00;;;;;;5116617;28;19912;-49
2022/12/14 07:02:29;;;;;;;;;;;16.30;84.40;;;;;;5095064;28;19946;-47
2022/12/14 07:04:55;;;;;;;;;;;16.40;84.50;;;;;;5097107;28;19912;-49
2022/12/14 07:07:20;;;;;;;;;;;16.30;84.50;;;;;;5107093;28;19919;-51
2022/12/14 07:09:46;;;;;;;;;;;16.30;84.60;;;;;;5109291;28;19919;-46
2022/12/14 07:12:11;;;;;;;;;;;16.30;85.10;;;;;;5112515;28;19915;-47
2022/12/14 07:14:37;;;;;;;;;;;16.30;84.60;;;;;;5116700;28;19934;-45
2022/12/14 07:17:02;;;;;;;;;;;16.30;84.90;;;;;;5102874;28;19919;-49
2022/12/14 07:19:28;;;;;;;;;;;16.20;85.10;;;;;;5094849;28;20274;-47
2022/12/14 07:21:53;;;;;;;;;;;16.20;85.10;;;;;;5096221;28;19912;-48
2022/12/14 07:24:18;;;;;;;;;;;16.20;85.10;;;;;;5093222;28;20013;-47
2022/12/14 07:26:44;;;;;;;;;;;16.20;85.00;;;;;;5095067;28;19923;-47
2022/12/14 07:29:10;;;;;;;;;;;16.20;84.90;;;;;;5095834;28;19912;-45
2022/12/14 07:31:36;;;;;;;;;;;16.20;84.80;;;;;;5102753;28;20007;-46
2022/12/14 07:34:02;;;;;;;;;;;16.20;84.70;;;;;;5102465;28;20007;-46
2022/12/14 07:36:28;;;;;;;;;;;16.20;84.70;;;;;;5109502;28;19912;-47
2022/12/14 07:38:54;;;;;;;;;;;16.20;83.40;;;;;;5103577;28;19911;-44
2022/12/14 07:41:21;;;;;;;;;;;16.10;79.70;;;;;;5114601;28;20251;-48
2022/12/14 07:43:47;;;;;;;;;;;16.00;79.90;;;;;;5078093;28;19912;-45
2022/12/14 07:46:14;;;;;;;;;;;16.10;83.00;;;;;;5091138;28;20355;-45
2022/12/14 07:48:44;;;;;;;;;;;16.20;83.70;;;;;;5075305;28;19935;-49
2022/12/14 07:51:10;;;;;;;;;;;16.20;84.20;;;;;;5075963;28;19915;-48
2022/12/14 07:53:37;;;;;;;;;;;16.20;83.80;;;;;;5076322;28;19978;-47
2022/12/14 07:56:03;;;;;;;;;;;16.20;83.70;;;;;;5075564;28;19962;-47
2022/12/14 07:58:30;;;;;;;;;;;16.30;83.80;;;;;;5075850;28;19956;-48
2022/12/14 08:00:55;;;;;;;;;;;16.30;83.70;;;;;;5075730;28;19974;-48
2022/12/14 08:03:21;;;;;;;;;;;16.30;83.70;;;;;;5057868;28;20363;-45
2022/12/14 08:05:46;;;;;;;;;;;16.20;83.60;;;;;;5075720;28;19929;-51
2022/12/14 08:08:11;;;;;;;;;;;16.20;83.60;;;;;;5075529;28;19915;-47
2022/12/14 08:10:37;;;;;;;;;;;16.20;83.60;;;;;;5075348;28;19999;-45
2022/12/14 08:13:02;;;;;;;;;;;16.20;83.70;;;;;;5075327;28;19909;-45
2022/12/14 08:15:28;;;;;;;;;;;16.30;83.70;;;;;;5075284;28;19908;-52
2022/12/14 08:17:53;;;;;;;;;;;16.20;83.70;;;;;;5075462;28;19908;-46
2022/12/14 08:20:19;;;;;;;;;;;16.20;83.60;;;;;;5075531;28;20435;-47
2022/12/14 08:22:44;;;;;;;;;;;16.30;83.70;;;;;;5075330;28;19962;-50
2022/12/14 08:25:10;;;;;;;;;;;16.20;83.60;;;;;;5075410;28;19916;-47
2022/12/14 08:27:35;;;;;;;;;;;16.20;83.60;;;;;;5075722;28;19915;-46
2022/12/14 08:30:01;;;;;;;;;;;16.30;83.60;;;;;;5075362;28;19931;-48
2022/12/14 08:32:26;;;;;;;;;;;16.30;83.60;;;;;;5075008;28;19909;-50
2022/12/14 08:34:52;;;;;;;;;;;16.30;83.50;;;;;;5074893;28;19986;-46
2022/12/14 08:37:17;;;;;;;;;;;16.30;83.50;;;;;;5074934;28;19919;-46
2022/12/14 08:39:43;;;;;;;;;;;16.20;83.40;;;;;;5074914;28;19909;-44
2022/12/14 08:42:08;;;;;;;;;;;16.20;83.40;;;;;;5074725;28;19919;-49
2022/12/14 08:44:33;;;;;;;;;;;16.20;83.40;;;;;;5074652;28;19912;-47
2022/12/14 08:46:59;;;;;;;;;;;16.20;83.40;;;;;;5074987;28;19909;-45
2022/12/14 08:49:24;;;;;;;;;;;16.20;83.40;;;;;;5075233;28;19912;-48
2022/12/14 08:51:50;;;;;;;;;;;16.20;83.40;;;;;;5074483;28;19908;-46
2022/12/14 08:54:17;;;;;;;;;;;16.20;83.50;;;;;;5075183;28;19908;-47
2022/12/14 08:56:42;;;;;;;;;;;16.20;83.50;;;;;;5074495;28;20465;-46
2022/12/14 08:59:08;;;;;;;;;;;16.20;83.50;;;;;;5074821;28;19944;-50
2022/12/14 09:01:33;;;;;;;;;;;16.20;83.50;;;;;;5074690;28;20011;-47
2022/12/14 09:04:06;;;;;;;;;;;16.20;83.50;;;;;;5075177;28;20347;-48
2022/12/14 09:06:33;;;;;;;;;;;16.20;83.50;;;;;;5074645;28;19948;-48
2022/12/14 09:08:58;;;;;;;;;;;16.20;83.50;;;;;;5074699;28;20351;-46
2022/12/14 09:11:23;;;;;;;;;;;16.20;83.50;;;;;;5074320;28;19957;-50
2022/12/14 09:13:52;;;;;;;;;;;16.20;83.50;;;;;;5074507;28;20262;-48
2022/12/14 09:16:18;;;;;;;;;;;16.30;83.40;;;;;;5074507;28;19909;-49
2022/12/14 09:18:44;;;;;;;;;;;16.30;83.40;;;;;;5074305;28;20363;-50
2022/12/14 09:21:10;;;;;;;;;;;16.30;83.30;;;;;;5074146;28;19919;-48
2022/12/14 09:23:36;;;;;;;;;;;16.30;83.30;;;;;;5074464;28;19912;-47
2022/12/14 09:26:03;;;;;;;;;;;16.30;83.30;;;;;;5073960;28;19920;-47
2022/12/14 09:28:29;;;;;;;;;;;16.30;83.20;;;;;;5074545;28;19916;-47
2022/12/14 09:30:55;;;;;;;;;;;16.30;83.20;;;;;;5073863;28;19912;-48
2022/12/14 09:33:21;;;;;;;;;;;16.30;83.20;;;;;;5074170;28;19908;-50
2022/12/14 09:35:46;;;;;;;;;;;16.30;83.20;;;;;;5073552;28;20000;-46
2022/12/14 09:38:12;;;;;;;;;;;16.30;83.20;;;;;;5074143;28;19962;-46
2022/12/14 09:40:41;;;;;;;;;;;16.30;83.20;;;;;;5073814;28;20395;-47
2022/12/14 09:43:09;;;;;;;;;;;16.30;83.20;;;;;;5055703;28;19912;-47
2022/12/14 09:45:41;;;;;;;;;;;16.30;83.30;;;;;;5073451;28;19925;-49
2022/12/14 09:48:13;;;;;;;;;;;16.20;83.20;;;;;;5073753;28;19908;-46
2022/12/14 09:50:39;;;;;;;;;;;16.20;83.30;;;;;;5074170;28;20096;-46
2022/12/14 09:53:06;;;;;;;;;;;16.20;83.20;;;;;;5074123;28;19916;-46
2022/12/14 09:55:33;;;;;;;;;;;16.20;83.30;;;;;;5073589;28;19909;-48
2022/12/14 09:58:00;;;;;;;;;;;16.20;83.30;;;;;;5073997;28;19908;-48
2022/12/14 10:00:29;;;;;;;;;;;16.20;83.30;;;;;;5073893;28;19913;-45
2022/12/14 10:03:00;;;;;;;;;;;16.20;83.30;;;;;;5073045;28;19923;-48
2022/12/14 10:05:46;;;;;;;;;;;16.20;83.30;;;;;;5073521;28;20260;-45
2022/12/14 10:08:18;;;;;;;;;;;16.20;83.30;;;;;;5073699;28;19908;-45
2022/12/14 10:10:54;;;;;;;;;;;16.20;83.30;;;;;;5073911;28;19908;-49
2022/12/14 10:13:38;;;;;;;;;;;16.20;83.30;;;;;;5073847;28;20367;-48
2022/12/14 10:16:03;;;;;;;;;;;16.20;83.20;;;;;;5073457;28;19956;-47
2022/12/14 10:18:32;;;;;;;;;;;16.20;83.20;;;;;;5073744;28;20344;-50
2022/12/14 10:21:24;;;;;;;;;;;16.20;83.20;;;;;;5073677;28;19909;-48
2022/12/14 10:23:52;;;;;;;;;;;16.20;83.20;;;;;;5071325;28;19919;-47
2022/12/14 10:26:19;;;;;;;;;;;16.20;83.20;;;;;;5073426;28;19909;-51
2022/12/14 10:28:47;;;;;;;;;;;16.30;83.20;;;;;;5073354;28;20355;-51
2022/12/14 10:31:14;;;;;;;;;;;16.30;83.10;;;;;;5073525;28;20351;-52
2022/12/14 10:33:44;;;;;;;;;;;16.30;83.10;;;;;;5073278;28;20374;-51
2022/12/14 10:36:16;;;;;;;;;;;16.30;83.00;;;;;;5073488;28;19909;-49
2022/12/14 10:38:52;;;;;;;;;;;16.30;83.00;;;;;;5073510;28;19913;-50
2022/12/14 10:41:38;;;;;;;;;;;16.30;83.00;;;;;;5073421;28;19967;-50
2022/12/14 10:44:21;;;;;;;;;;;16.30;83.00;;;;;;5073483;28;19913;-46
2022/12/14 10:46:53;;;;;;;;;;;16.30;83.00;;;;;;5073414;28;19954;-49
2022/12/14 10:49:25;;;;;;;;;;;16.30;83.00;;;;;;5073435;28;20010;-47
2022/12/14 10:51:57;;;;;;;;;;;16.30;83.00;;;;;;5073522;28;19909;-47
2022/12/14 10:54:32;;;;;;;;;;;16.30;83.10;;;;;;5073351;28;20003;-49
2022/12/14 10:56:57;;;;;;;;;;;16.30;83.10;;;;;;5073702;28;19936;-49
2022/12/14 10:59:25;;;;;;;;;;;16.20;83.00;;;;;;5076603;28;19908;-47
2022/12/14 11:01:52;;;;;;;;;;;16.20;83.60;;;;;;5076929;28;20082;-48
2022/12/14 11:04:17;;;;;;;;;;;16.20;83.00;;;;;;5076942;28;19955;-46
2022/12/14 11:06:43;;;;;;;;;;;16.20;83.00;;;;;;5076923;28;19912;-45
2022/12/14 11:09:22;;;;;;;;;;;16.20;82.90;;;;;;5076484;28;19909;-45
2022/12/14 11:11:53;;;;;;;;;;;16.20;83.00;;;;;;5076692;28;19916;-46
2022/12/14 11:14:21;;;;;;;;;;;16.20;82.90;;;;;;5058854;28;19955;-44
2022/12/14 11:16:46;;;;;;;;;;;16.20;82.90;;;;;;5076586;28;19953;-45
2022/12/14 11:19:16;;;;;;;;;;;16.20;82.90;;;;;;5076553;28;19999;-46
2022/12/14 11:21:42;;;;;;;;;;;16.20;82.90;;;;;;5076293;28;19913;-48
2022/12/14 11:24:19;;;;;;;;;;;16.20;82.90;;;;;;5076401;28;20326;-51
2022/12/14 11:26:45;;;;;;;;;;;16.20;82.90;;;;;;5076526;28;19908;-45
2022/12/14 11:29:19;;;;;;;;;;;16.20;82.90;;;;;;5076247;28;19914;-48
2022/12/14 11:31:45;;;;;;;;;;;16.20;82.90;;;;;;5076459;28;19909;-50
2022/12/14 11:34:23;;;;;;;;;;;16.20;83.00;;;;;;5076137;28;19962;-48
2022/12/14 11:36:48;;;;;;;;;;;16.20;83.00;;;;;;5075875;28;19962;-45
2022/12/14 11:39:14;;;;;;;;;;;16.20;83.00;;;;;;5076276;28;19912;-46
2022/12/14 11:41:39;;;;;;;;;;;16.20;83.10;;;;;;5058137;28;19912;-47
2022/12/14 11:44:14;;;;;;;;;;;16.20;83.10;;;;;;5076192;28;20428;-45
2022/12/14 11:46:49;;;;;;;;;;;16.20;83.10;;;;;;5076096;28;19909;-45
2022/12/14 11:49:21;;;;;;;;;;;16.20;83.10;;;;;;5076017;28;19912;-44
2022/12/14 11:51:57;;;;;;;;;;;16.20;83.10;;;;;;5076201;28;19912;-49
2022/12/14 11:54:22;;;;;;;;;;;16.20;83.10;;;;;;5075835;28;19939;-47
2022/12/14 11:56:54;;;;;;;;;;;16.20;83.10;;;;;;5075674;28;20371;-47
2022/12/14 11:59:20;;;;;;;;;;;16.20;83.00;;;;;;5075961;28;19908;-46
2022/12/14 12:01:45;;;;;;;;;;;16.20;83.00;;;;;;5075710;28;19919;-46
2022/12/14 12:04:13;;;;;;;;;;;16.20;83.00;;;;;;5057983;28;20379;-49
2022/12/14 12:06:39;;;;;;;;;;;16.20;83.00;;;;;;5075523;28;19909;-46
2022/12/14 12:09:10;;;;;;;;;;;16.20;82.90;;;;;;5075074;28;19913;-46
2022/12/14 12:11:36;;;;;;;;;;;16.20;82.90;;;;;;5057830;28;19908;-46
2022/12/14 12:14:21;;;;;;;;;;;16.20;82.80;;;;;;5075533;28;19913;-52
2022/12/14 12:16:47;;;;;;;;;;;16.20;82.80;;;;;;5068215;28;19909;-48
2022/12/14 12:19:18;;;;;;;;;;;16.20;82.80;;;;;;5075567;28;19908;-47
2022/12/14 12:21:44;;;;;;;;;;;16.20;82.80;;;;;;5075144;28;19935;-48
2022/12/14 12:24:21;;;;;;;;;;;16.20;82.80;;;;;;5074899;28;20371;-48
2022/12/14 12:26:49;;;;;;;;;;;16.20;82.80;;;;;;5075225;28;20007;-48
2022/12/14 12:29:28;;;;;;;;;;;16.20;82.90;;;;;;5075070;28;19919;-47
2022/12/14 12:31:57;;;;;;;;;;;16.20;82.90;;;;;;5074906;28;19912;-50
2022/12/14 12:34:28;;;;;;;;;;;16.20;82.90;;;;;;5075164;28;20382;-46
2022/12/14 12:36:56;;;;;;;;;;;16.10;82.90;;;;;;5075124;28;19915;-46
2022/12/14 12:39:23;;;;;;;;;;;16.20;83.00;;;;;;5075110;28;20008;-46
2022/12/14 12:41:57;;;;;;;;;;;16.20;83.00;;;;;;5075172;28;19912;-46
2022/12/14 12:44:30;;;;;;;;;;;16.20;82.90;;;;;;5074868;28;19918;-49
2022/12/14 12:47:15;;;;;;;;;;;16.30;83.00;;;;;;5075384;28;19909;-47
2022/12/14 12:49:40;;;;;;;;;;;16.20;82.90;;;;;;5074897;28;19916;-50
2022/12/14 12:52:12;;;;;;;;;;;16.30;82.80;;;;;;5074918;28;19996;-48
2022/12/14 12:54:40;;;;;;;;;;;16.20;82.70;;;;;;5074832;28;20359;-49
2022/12/14 12:57:07;;;;;;;;;;;16.30;82.70;;;;;;5074613;28;20386;-48
2022/12/14 12:59:35;;;;;;;;;;;16.30;82.70;;;;;;5074571;28;20436;-47
2022/12/14 13:02:04;;;;;;;;;;;16.30;82.70;;;;;;5074779;28;19919;-47
2022/12/14 13:04:31;;;;;;;;;;;16.30;82.70;;;;;;5074379;28;19919;-46
2022/12/14 13:07:05;;;;;;;;;;;16.20;82.70;;;;;;5074527;28;19912;-48
2022/12/14 13:09:42;;;;;;;;;;;16.30;82.70;;;;;;5074456;28;19909;-47
2022/12/14 13:12:13;;;;;;;;;;;16.20;82.80;;;;;;5074620;28;20418;-49
2022/12/14 13:14:49;;;;;;;;;;;16.20;82.70;;;;;;5074401;28;19958;-46
2022/12/14 13:17:29;;;;;;;;;;;16.20;82.70;;;;;;5074371;28;19909;-49
2022/12/14 13:19:56;;;;;;;;;;;16.20;82.70;;;;;;5073960;28;19916;-47
2022/12/14 13:22:32;;;;;;;;;;;16.20;82.70;;;;;;5074516;28;19975;-47
2022/12/14 13:25:06;;;;;;;;;;;16.20;82.70;;;;;;5074758;28;19996;-46
2022/12/14 13:27:35;;;;;;;;;;;16.20;82.70;;;;;;5074315;28;19909;-46
2022/12/14 13:30:12;;;;;;;;;;;16.20;82.70;;;;;;5074191;28;20267;-48
2022/12/14 13:32:46;;;;;;;;;;;16.20;82.60;;;;;;5073932;28;19952;-47
2022/12/14 13:35:18;;;;;;;;;;;16.20;82.60;;;;;;5073926;28;20328;-48
2022/12/14 13:37:55;;;;;;;;;;;16.20;82.60;;;;;;5074025;28;19908;-48
2022/12/14 13:40:23;;;;;;;;;;;16.20;82.60;;;;;;5073670;28;19909;-50
2022/12/14 13:43:07;;;;;;;;;;;16.20;82.60;;;;;;5073640;28;20069;-46
2022/12/14 13:45:44;;;;;;;;;;;16.20;82.70;;;;;;5073771;28;20226;-49
2022/12/14 13:48:27;;;;;;;;;;;16.10;82.60;;;;;;5074282;28;20412;-46
2022/12/14 13:51:03;;;;;;;;;;;16.10;82.60;;;;;;5073528;28;19919;-49
2022/12/14 13:53:45;;;;;;;;;;;16.10;82.60;;;;;;5073720;28;19917;-46
2022/12/14 13:56:18;;;;;;;;;;;16.10;82.70;;;;;;5073738;28;19915;-46
2022/12/14 13:58:44;;;;;;;;;;;16.10;82.70;;;;;;5056216;28;19912;-46
2022/12/14 14:01:22;;;;;;;;;;;16.20;82.80;;;;;;5073744;28;19908;-48
2022/12/14 14:03:51;;;;;;;;;;;16.20;82.70;;;;;;5073664;28;19913;-49
2022/12/14 14:06:29;;;;;;;;;;;16.30;82.70;;;;;;5073735;28;19909;-48
2022/12/14 14:08:54;;;;;;;;;;;16.30;82.70;;;;;;5073721;28;20003;-49
2022/12/14 14:11:20;;;;;;;;;;;16.30;82.60;;;;;;5073738;28;20338;-47
2022/12/14 14:13:45;;;;;;;;;;;16.30;82.50;;;;;;5073792;28;19909;-46
2022/12/14 14:16:13;;;;;;;;;;;16.30;82.50;;;;;;5073376;28;19908;-46
2022/12/14 14:18:58;;;;;;;;;;;16.30;82.50;;;;;;5073418;28;20484;-48
2022/12/14 14:21:29;;;;;;;;;;;16.30;82.50;;;;;;5073620;28;19913;-49
2022/12/14 14:23:56;;;;;;;;;;;16.30;82.50;;;;;;5073475;28;20411;-47
2022/12/14 14:26:22;;;;;;;;;;;16.30;82.40;;;;;;5073579;28;20275;-46
2022/12/14 14:29:06;;;;;;;;;;;16.20;82.40;;;;;;5073634;28;19920;-50
2022/12/14 14:31:41;;;;;;;;;;;16.30;82.50;;;;;;5073401;28;19910;-47
2022/12/14 14:34:13;;;;;;;;;;;16.20;82.40;;;;;;5077284;28;19927;-46
2022/12/14 14:36:42;;;;;;;;;;;16.20;82.50;;;;;;5077104;28;19916;-47